sensor_id;sensor_type;location;lat;lon;timestamp;pressure;altitude;pressure_sealevel;temperature;humidity
10464;BME280;5279;42.048;24.638;2023-02-19T00:00:10;97608.56;;;12.95;44.48
10464;BME280;5279;42.048;24.638;2023-02-19T00:02:40;97608.09;;;12.99;44.61
10464;BME280;5279;42.048;24.638;2023-02-19T00:05:08;97610.91;;;12.98;44.34
10464;BME280;5279;42.048;24.638;2023-02-19T00:07:34;97612.94;;;13.04;43.96
10464;BME280;5279;42.048;24.638;2023-02-19T00:10:01;97606.31;;;13.08;43.90
10464;BME280;5279;42.048;24.638;2023-02-19T00:12:28;97598.84;;;13.11;43.66
10464;BME280;5279;42.048;24.638;2023-02-19T00:14:56;97604.19;;;13.11;43.84
10464;BME280;5279;42.048;24.638;2023-02-19T00:17:23;97595.69;;;13.08;43.51
10464;BME280;5279;42.048;24.638;2023-02-19T00:19:50;97583.22;;;13.17;43.35
10464;BME280;5279;42.048;24.638;2023-02-19T00:22:17;97582.53;;;13.06;43.77
10464;BME280;5279;42.048;24.638;2023-02-19T00:24:43;97581.50;;;13.07;43.84
10464;BME280;5279;42.048;24.638;2023-02-19T00:27:10;97577.53;;;13.03;43.70
10464;BME280;5279;42.048;24.638;2023-02-19T00:29:37;97574.53;;;13.06;43.50
10464;BME280;5279;42.048;24.638;2023-02-19T00:32:05;97572.25;;;13.11;43.52
10464;BME280;5279;42.048;24.638;2023-02-19T00:34:32;97566.41;;;13.08;43.90
10464;BME280;5279;42.048;24.638;2023-02-19T00:36:59;97561.25;;;13.06;43.53
10464;BME280;5279;42.048;24.638;2023-02-19T00:39:26;97553.41;;;13.05;43.45
10464;BME280;5279;42.048;24.638;2023-02-19T00:41:53;97545.00;;;13.09;43.28
10464;BME280;5279;42.048;24.638;2023-02-19T00:44:19;97548.25;;;13.03;43.59
10464;BME280;5279;42.048;24.638;2023-02-19T00:46:47;97553.13;;;13.08;43.40
10464;BME280;5279;42.048;24.638;2023-02-19T00:49:17;97552.97;;;13.09;43.25
10464;BME280;5279;42.048;24.638;2023-02-19T00:51:44;97550.91;;;13.03;43.50
10464;BME280;5279;42.048;24.638;2023-02-19T00:54:12;97552.88;;;13.01;43.82
10464;BME280;5279;42.048;24.638;2023-02-19T00:56:39;97552.41;;;12.98;44.40
10464;BME280;5279;42.048;24.638;2023-02-19T00:59:06;97549.88;;;12.96;44.30
10464;BME280;5279;42.048;24.638;2023-02-19T01:01:33;97546.06;;;12.91;44.17
10464;BME280;5279;42.048;24.638;2023-02-19T01:04:00;97547.34;;;12.87;44.05
10464;BME280;5279;42.048;24.638;2023-02-19T01:06:28;97539.19;;;12.80;44.15
10464;BME280;5279;42.048;24.638;2023-02-19T01:08:56;97543.50;;;12.73;44.51
10464;BME280;5279;42.048;24.638;2023-02-19T01:11:23;97548.91;;;12.64;44.79
10464;BME280;5279;42.048;24.638;2023-02-19T01:13:51;97543.91;;;12.60;44.65
10464;BME280;5279;42.048;24.638;2023-02-19T01:16:20;97537.56;;;12.53;45.28
10464;BME280;5279;42.048;24.638;2023-02-19T01:18:48;97535.72;;;12.46;45.43
10464;BME280;5279;42.048;24.638;2023-02-19T01:21:17;97541.44;;;12.33;46.14
10464;BME280;5279;42.048;24.638;2023-02-19T01:23:46;97544.03;;;12.25;45.95
10464;BME280;5279;42.048;24.638;2023-02-19T01:26:16;97538.88;;;12.24;45.84
10464;BME280;5279;42.048;24.638;2023-02-19T01:28:44;97542.16;;;12.18;46.75
10464;BME280;5279;42.048;24.638;2023-02-19T01:31:13;97542.56;;;11.79;47.66
10464;BME280;5279;42.048;24.638;2023-02-19T01:33:43;97548.84;;;11.78;47.50
10464;BME280;5279;42.048;24.638;2023-02-19T01:36:10;97550.44;;;11.71;48.09
10464;BME280;5279;42.048;24.638;2023-02-19T01:38:37;97545.25;;;11.52;48.43
10464;BME280;5279;42.048;24.638;2023-02-19T01:41:06;97556.16;;;11.49;48.01
10464;BME280;5279;42.048;24.638;2023-02-19T01:43:56;97550.34;;;11.45;47.81
10464;BME280;5279;42.048;24.638;2023-02-19T01:46:24;97564.06;;;11.41;48.13
10464;BME280;5279;42.048;24.638;2023-02-19T01:48:52;97567.69;;;11.40;47.99
10464;BME280;5279;42.048;24.638;2023-02-19T01:51:20;97564.84;;;11.06;49.59
10464;BME280;5279;42.048;24.638;2023-02-19T01:53:52;97559.47;;;11.16;48.89
10464;BME280;5279;42.048;24.638;2023-02-19T01:56:22;97550.88;;;11.04;49.02
10464;BME280;5279;42.048;24.638;2023-02-19T01:58:50;97561.50;;;11.04;49.25
10464;BME280;5279;42.048;24.638;2023-02-19T02:01:18;97561.31;;;10.88;49.79
10464;BME280;5279;42.048;24.638;2023-02-19T02:03:47;97549.97;;;10.95;49.40
10464;BME280;5279;42.048;24.638;2023-02-19T02:06:19;97531.09;;;10.98;49.48
10464;BME280;5279;42.048;24.638;2023-02-19T02:08:50;97524.44;;;10.94;49.69
10464;BME280;5279;42.048;24.638;2023-02-19T02:11:37;97527.31;;;11.01;49.40
10464;BME280;5279;42.048;24.638;2023-02-19T02:14:06;97533.84;;;11.07;49.61
10464;BME280;5279;42.048;24.638;2023-02-19T02:16:41;97533.41;;;11.11;48.65
10464;BME280;5279;42.048;24.638;2023-02-19T02:19:24;97537.94;;;11.19;47.22
10464;BME280;5279;42.048;24.638;2023-02-19T02:22:02;97527.13;;;11.47;45.92
10464;BME280;5279;42.048;24.638;2023-02-19T02:25:06;97534.47;;;11.89;45.13
10464;BME280;5279;42.048;24.638;2023-02-19T02:27:50;97533.09;;;12.02;44.69
10464;BME280;5279;42.048;24.638;2023-02-19T02:30:26;97544.09;;;12.07;44.49
10464;BME280;5279;42.048;24.638;2023-02-19T02:32:58;97552.13;;;12.16;44.15
10464;BME280;5279;42.048;24.638;2023-02-19T02:35:31;97545.66;;;12.18;44.58
10464;BME280;5279;42.048;24.638;2023-02-19T02:38:02;97543.16;;;12.17;44.49
10464;BME280;5279;42.048;24.638;2023-02-19T02:40:30;97547.47;;;12.18;44.18
10464;BME280;5279;42.048;24.638;2023-02-19T02:42:57;97555.19;;;12.03;44.20
10464;BME280;5279;42.048;24.638;2023-02-19T02:45:29;97564.88;;;12.12;43.96
10464;BME280;5279;42.048;24.638;2023-02-19T02:48:16;97567.81;;;12.27;44.03
10464;BME280;5279;42.048;24.638;2023-02-19T02:50:46;97572.38;;;12.17;44.19
10464;BME280;5279;42.048;24.638;2023-02-19T02:53:19;97583.00;;;12.17;44.57
10464;BME280;5279;42.048;24.638;2023-02-19T02:56:04;97579.22;;;12.01;45.07
10464;BME280;5279;42.048;24.638;2023-02-19T02:58:33;97591.47;;;11.94;45.09
10464;BME280;5279;42.048;24.638;2023-02-19T03:01:04;97582.75;;;11.84;45.26
10464;BME280;5279;42.048;24.638;2023-02-19T03:03:54;97580.69;;;11.78;46.26
10464;BME280;5279;42.048;24.638;2023-02-19T03:06:24;97578.16;;;11.59;46.67
10464;BME280;5279;42.048;24.638;2023-02-19T03:08:57;97588.00;;;11.49;47.17
10464;BME280;5279;42.048;24.638;2023-02-19T03:11:28;97594.22;;;11.40;47.48
10464;BME280;5279;42.048;24.638;2023-02-19T03:14:16;97600.34;;;11.40;47.01
10464;BME280;5279;42.048;24.638;2023-02-19T03:17:11;97601.00;;;11.25;46.50
10464;BME280;5279;42.048;24.638;2023-02-19T03:20:00;97606.41;;;11.33;45.84
10464;BME280;5279;42.048;24.638;2023-02-19T03:22:31;97610.72;;;11.34;45.55
10464;BME280;5279;42.048;24.638;2023-02-19T03:25:01;97611.50;;;11.44;45.18
10464;BME280;5279;42.048;24.638;2023-02-19T03:27:48;97611.69;;;11.60;44.53
10464;BME280;5279;42.048;24.638;2023-02-19T03:30:18;97621.03;;;11.64;44.53
10464;BME280;5279;42.048;24.638;2023-02-19T03:32:53;97621.28;;;11.88;44.05
10464;BME280;5279;42.048;24.638;2023-02-19T03:35:23;97617.31;;;11.92;43.78
10464;BME280;5279;42.048;24.638;2023-02-19T03:37:56;97616.94;;;12.05;43.17
10464;BME280;5279;42.048;24.638;2023-02-19T03:40:28;97622.63;;;12.10;42.83
10464;BME280;5279;42.048;24.638;2023-02-19T03:43:00;97623.03;;;12.41;42.17
10464;BME280;5279;42.048;24.638;2023-02-19T03:45:37;97622.09;;;12.50;41.91
10464;BME280;5279;42.048;24.638;2023-02-19T03:48:29;97619.53;;;12.66;41.28
10464;BME280;5279;42.048;24.638;2023-02-19T03:51:10;97621.25;;;12.75;41.02
10464;BME280;5279;42.048;24.638;2023-02-19T03:53:46;97614.47;;;12.81;40.94
10464;BME280;5279;42.048;24.638;2023-02-19T03:56:19;97612.00;;;12.87;40.67
10464;BME280;5279;42.048;24.638;2023-02-19T03:58:52;97620.00;;;12.87;40.77
10464;BME280;5279;42.048;24.638;2023-02-19T04:01:26;97615.97;;;12.83;41.42
10464;BME280;5279;42.048;24.638;2023-02-19T04:03:58;97616.72;;;12.68;41.75
10464;BME280;5279;42.048;24.638;2023-02-19T04:06:30;97626.78;;;12.56;42.04
10464;BME280;5279;42.048;24.638;2023-02-19T04:09:00;97629.38;;;12.48;42.13
10464;BME280;5279;42.048;24.638;2023-02-19T04:11:29;97618.94;;;12.29;42.41
10464;BME280;5279;42.048;24.638;2023-02-19T04:14:00;97633.25;;;12.28;42.28
10464;BME280;5279;42.048;24.638;2023-02-19T04:16:28;97642.19;;;12.27;42.52
10464;BME280;5279;42.048;24.638;2023-02-19T04:19:00;97629.81;;;12.18;43.53
10464;BME280;5279;42.048;24.638;2023-02-19T04:21:31;97632.03;;;12.04;43.28
10464;BME280;5279;42.048;24.638;2023-02-19T04:24:01;97643.66;;;12.03;43.38
10464;BME280;5279;42.048;24.638;2023-02-19T04:26:31;97640.78;;;11.79;44.28
10464;BME280;5279;42.048;24.638;2023-02-19T04:28:59;97644.03;;;11.73;44.06
10464;BME280;5279;42.048;24.638;2023-02-19T04:31:27;97652.91;;;11.82;43.55
10464;BME280;5279;42.048;24.638;2023-02-19T04:33:56;97648.25;;;11.66;44.46
10464;BME280;5279;42.048;24.638;2023-02-19T04:36:23;97660.53;;;11.67;44.52
10464;BME280;5279;42.048;24.638;2023-02-19T04:38:50;97658.38;;;11.53;44.47
10464;BME280;5279;42.048;24.638;2023-02-19T04:41:17;97657.81;;;11.49;44.28
10464;BME280;5279;42.048;24.638;2023-02-19T04:43:44;97667.00;;;11.55;44.27
10464;BME280;5279;42.048;24.638;2023-02-19T04:46:10;97668.69;;;11.56;44.25
10464;BME280;5279;42.048;24.638;2023-02-19T04:48:37;97669.78;;;11.63;44.08
10464;BME280;5279;42.048;24.638;2023-02-19T04:51:06;97667.50;;;11.68;43.77
10464;BME280;5279;42.048;24.638;2023-02-19T04:53:33;97682.19;;;11.90;43.03
10464;BME280;5279;42.048;24.638;2023-02-19T04:56:05;97682.19;;;11.90;42.77
10464;BME280;5279;42.048;24.638;2023-02-19T04:58:32;97684.16;;;12.05;42.68
10464;BME280;5279;42.048;24.638;2023-02-19T05:00:59;97692.50;;;12.28;41.87
10464;BME280;5279;42.048;24.638;2023-02-19T05:03:25;97693.66;;;12.26;42.09
10464;BME280;5279;42.048;24.638;2023-02-19T05:05:52;97698.81;;;12.27;42.46
10464;BME280;5279;42.048;24.638;2023-02-19T05:08:20;97705.19;;;12.17;42.64
10464;BME280;5279;42.048;24.638;2023-02-19T05:10:47;97711.94;;;12.11;42.74
10464;BME280;5279;42.048;24.638;2023-02-19T05:13:14;97719.69;;;12.04;43.05
10464;BME280;5279;42.048;24.638;2023-02-19T05:15:41;97725.06;;;11.95;43.37
10464;BME280;5279;42.048;24.638;2023-02-19T05:18:08;97730.03;;;11.80;43.53
10464;BME280;5279;42.048;24.638;2023-02-19T05:20:35;97731.63;;;11.73;44.03
10464;BME280;5279;42.048;24.638;2023-02-19T05:23:02;97739.16;;;11.68;43.87
10464;BME280;5279;42.048;24.638;2023-02-19T05:25:30;97737.63;;;11.75;43.87
10464;BME280;5279;42.048;24.638;2023-02-19T05:27:57;97737.91;;;11.72;44.08
10464;BME280;5279;42.048;24.638;2023-02-19T05:30:38;97732.09;;;11.59;44.06
10464;BME280;5279;42.048;24.638;2023-02-19T05:33:04;97739.16;;;11.68;44.04
10464;BME280;5279;42.048;24.638;2023-02-19T05:35:31;97735.94;;;11.74;44.01
10464;BME280;5279;42.048;24.638;2023-02-19T05:37:58;97742.34;;;11.81;43.91
10464;BME280;5279;42.048;24.638;2023-02-19T05:40:25;97742.81;;;11.94;43.03
10464;BME280;5279;42.048;24.638;2023-02-19T05:42:54;97754.31;;;12.13;42.87
10464;BME280;5279;42.048;24.638;2023-02-19T05:45:21;97753.41;;;12.22;42.48
10464;BME280;5279;42.048;24.638;2023-02-19T05:47:49;97759.44;;;12.49;41.76
10464;BME280;5279;42.048;24.638;2023-02-19T05:50:16;97753.97;;;12.69;41.32
10464;BME280;5279;42.048;24.638;2023-02-19T05:52:42;97749.94;;;12.82;41.24
10464;BME280;5279;42.048;24.638;2023-02-19T05:55:09;97754.94;;;12.85;41.39
10464;BME280;5279;42.048;24.638;2023-02-19T05:57:39;97749.31;;;12.88;41.44
10464;BME280;5279;42.048;24.638;2023-02-19T06:00:09;97749.63;;;12.85;41.09
10464;BME280;5279;42.048;24.638;2023-02-19T06:02:36;97747.75;;;13.03;40.99
10464;BME280;5279;42.048;24.638;2023-02-19T06:05:03;97748.25;;;13.25;40.62
10464;BME280;5279;42.048;24.638;2023-02-19T06:07:31;97745.22;;;13.45;40.00
10464;BME280;5279;42.048;24.638;2023-02-19T06:09:58;97755.78;;;13.71;39.41
10464;BME280;5279;42.048;24.638;2023-02-19T06:12:25;97767.22;;;13.97;38.67
10464;BME280;5279;42.048;24.638;2023-02-19T06:14:52;97769.25;;;14.19;38.30
10464;BME280;5279;42.048;24.638;2023-02-19T06:17:20;97769.00;;;14.39;37.80
10464;BME280;5279;42.048;24.638;2023-02-19T06:19:47;97776.38;;;14.53;37.75
10464;BME280;5279;42.048;24.638;2023-02-19T06:22:14;97784.03;;;14.48;38.02
10464;BME280;5279;42.048;24.638;2023-02-19T06:24:41;97772.03;;;14.44;37.78
10464;BME280;5279;42.048;24.638;2023-02-19T06:27:08;97776.72;;;14.50;37.92
10464;BME280;5279;42.048;24.638;2023-02-19T06:29:35;97770.06;;;14.62;37.66
10464;BME280;5279;42.048;24.638;2023-02-19T06:32:03;97777.72;;;14.81;37.11
10464;BME280;5279;42.048;24.638;2023-02-19T06:34:32;97776.03;;;14.96;36.43
10464;BME280;5279;42.048;24.638;2023-02-19T06:36:59;97775.50;;;15.17;36.36
10464;BME280;5279;42.048;24.638;2023-02-19T06:39:27;97774.00;;;15.30;36.29
10464;BME280;5279;42.048;24.638;2023-02-19T06:41:56;97769.97;;;15.43;36.13
10464;BME280;5279;42.048;24.638;2023-02-19T06:44:24;97791.00;;;15.62;35.24
10464;BME280;5279;42.048;24.638;2023-02-19T06:46:54;97776.91;;;15.76;35.41
10464;BME280;5279;42.048;24.638;2023-02-19T06:49:21;97779.19;;;15.95;35.13
10464;BME280;5279;42.048;24.638;2023-02-19T06:51:49;97785.13;;;16.13;34.58
10464;BME280;5279;42.048;24.638;2023-02-19T06:54:16;97782.47;;;16.36;34.10
10464;BME280;5279;42.048;24.638;2023-02-19T06:56:43;97780.53;;;16.53;33.80
10464;BME280;5279;42.048;24.638;2023-02-19T06:59:11;97786.13;;;16.66;33.67
10464;BME280;5279;42.048;24.638;2023-02-19T07:01:39;97782.34;;;16.83;33.41
10464;BME280;5279;42.048;24.638;2023-02-19T07:04:06;97775.78;;;17.08;33.12
10464;BME280;5279;42.048;24.638;2023-02-19T07:06:33;97785.22;;;17.33;32.95
10464;BME280;5279;42.048;24.638;2023-02-19T07:09:03;97786.75;;;17.51;31.97
10464;BME280;5279;42.048;24.638;2023-02-19T07:11:32;97781.00;;;17.39;31.43
10464;BME280;5279;42.048;24.638;2023-02-19T07:14:01;97787.31;;;17.61;31.91
10464;BME280;5279;42.048;24.638;2023-02-19T07:16:28;97783.38;;;17.71;31.48
10464;BME280;5279;42.048;24.638;2023-02-19T07:18:56;97782.88;;;17.97;30.82
10464;BME280;5279;42.048;24.638;2023-02-19T07:21:24;97777.50;;;18.26;30.64
10464;BME280;5279;42.048;24.638;2023-02-19T07:23:51;97790.16;;;18.32;30.09
10464;BME280;5279;42.048;24.638;2023-02-19T07:26:20;97783.75;;;18.33;30.25
10464;BME280;5279;42.048;24.638;2023-02-19T07:28:48;97780.97;;;18.41;30.33
10464;BME280;5279;42.048;24.638;2023-02-19T07:31:17;97793.72;;;18.39;30.10
10464;BME280;5279;42.048;24.638;2023-02-19T07:33:44;97784.28;;;18.43;30.25
10464;BME280;5279;42.048;24.638;2023-02-19T07:36:13;97785.41;;;18.34;30.05
10464;BME280;5279;42.048;24.638;2023-02-19T07:38:40;97789.88;;;18.27;30.33
10464;BME280;5279;42.048;24.638;2023-02-19T07:41:07;97779.66;;;18.01;30.48
10464;BME280;5279;42.048;24.638;2023-02-19T07:43:37;97796.03;;;17.92;30.68
10464;BME280;5279;42.048;24.638;2023-02-19T07:46:04;97789.34;;;17.88;30.85
10464;BME280;5279;42.048;24.638;2023-02-19T07:48:33;97785.56;;;17.82;30.96
10464;BME280;5279;42.048;24.638;2023-02-19T07:51:01;97786.66;;;18.02;30.99
10464;BME280;5279;42.048;24.638;2023-02-19T07:53:28;97793.72;;;17.89;30.80
10464;BME280;5279;42.048;24.638;2023-02-19T07:55:58;97785.84;;;18.02;30.72
10464;BME280;5279;42.048;24.638;2023-02-19T07:58:26;97785.25;;;18.21;30.50
10464;BME280;5279;42.048;24.638;2023-02-19T08:00:54;97791.25;;;18.38;30.19
10464;BME280;5279;42.048;24.638;2023-02-19T08:03:21;97778.19;;;18.49;30.77
10464;BME280;5279;42.048;24.638;2023-02-19T08:05:47;97787.03;;;18.86;30.01
10464;BME280;5279;42.048;24.638;2023-02-19T08:08:16;97774.22;;;19.09;29.85
10464;BME280;5279;42.048;24.638;2023-02-19T08:10:42;97766.03;;;19.17;29.18
10464;BME280;5279;42.048;24.638;2023-02-19T08:13:28;97783.44;;;18.79;29.52
10464;BME280;5279;42.048;24.638;2023-02-19T08:16:10;97776.81;;;18.75;30.57
10464;BME280;5279;42.048;24.638;2023-02-19T08:18:37;97777.38;;;18.91;30.30
10464;BME280;5279;42.048;24.638;2023-02-19T08:21:04;97782.16;;;19.17;29.63
10464;BME280;5279;42.048;24.638;2023-02-19T08:23:31;97776.88;;;19.30;29.57
10464;BME280;5279;42.048;24.638;2023-02-19T08:25:59;97769.19;;;19.48;28.98
10464;BME280;5279;42.048;24.638;2023-02-19T08:28:26;97766.94;;;19.52;28.86
10464;BME280;5279;42.048;24.638;2023-02-19T08:30:59;97768.31;;;19.41;28.82
10464;BME280;5279;42.048;24.638;2023-02-19T08:33:26;97759.38;;;19.13;29.72
10464;BME280;5279;42.048;24.638;2023-02-19T08:35:53;97763.16;;;19.46;29.06
10464;BME280;5279;42.048;24.638;2023-02-19T08:38:21;97764.81;;;19.75;29.04
10464;BME280;5279;42.048;24.638;2023-02-19T08:40:47;97757.16;;;20.19;28.89
10464;BME280;5279;42.048;24.638;2023-02-19T08:43:15;97759.13;;;20.39;27.70
10464;BME280;5279;42.048;24.638;2023-02-19T08:45:44;97755.63;;;20.51;27.80
10464;BME280;5279;42.048;24.638;2023-02-19T08:48:14;97753.97;;;20.50;27.79
10464;BME280;5279;42.048;24.638;2023-02-19T08:50:41;97748.47;;;20.17;28.19
10464;BME280;5279;42.048;24.638;2023-02-19T08:53:07;97747.72;;;20.37;28.96
10464;BME280;5279;42.048;24.638;2023-02-19T08:55:36;97736.22;;;20.76;28.39
10464;BME280;5279;42.048;24.638;2023-02-19T08:58:03;97744.00;;;20.44;27.69
10464;BME280;5279;42.048;24.638;2023-02-19T09:00:30;97747.38;;;20.59;27.68
10464;BME280;5279;42.048;24.638;2023-02-19T09:02:57;97747.81;;;20.83;27.38
10464;BME280;5279;42.048;24.638;2023-02-19T09:05:25;97744.50;;;20.81;27.48
10464;BME280;5279;42.048;24.638;2023-02-19T09:07:52;97747.44;;;21.25;26.97
10464;BME280;5279;42.048;24.638;2023-02-19T09:10:19;97744.09;;;20.90;27.06
10464;BME280;5279;42.048;24.638;2023-02-19T09:12:45;97738.69;;;21.49;26.46
10464;BME280;5279;42.048;24.638;2023-02-19T09:15:12;97736.66;;;21.32;26.80
10464;BME280;5279;42.048;24.638;2023-02-19T09:17:39;97731.16;;;21.77;26.09
10464;BME280;5279;42.048;24.638;2023-02-19T09:20:07;97728.38;;;22.10;26.13
10464;BME280;5279;42.048;24.638;2023-02-19T09:22:36;97712.47;;;23.27;25.25
10464;BME280;5279;42.048;24.638;2023-02-19T09:25:03;97716.16;;;23.94;23.66
10464;BME280;5279;42.048;24.638;2023-02-19T09:27:36;97715.81;;;23.23;24.23
10464;BME280;5279;42.048;24.638;2023-02-19T09:30:03;97725.63;;;22.93;24.75
10464;BME280;5279;42.048;24.638;2023-02-19T09:32:30;97713.25;;;23.34;24.41
10464;BME280;5279;42.048;24.638;2023-02-19T09:34:57;97711.41;;;24.26;23.76
10464;BME280;5279;42.048;24.638;2023-02-19T09:37:25;97712.53;;;24.00;23.50
10464;BME280;5279;42.048;24.638;2023-02-19T09:39:54;97700.50;;;25.15;22.48
10464;BME280;5279;42.048;24.638;2023-02-19T09:42:22;97690.84;;;25.54;22.71
10464;BME280;5279;42.048;24.638;2023-02-19T09:44:52;97694.38;;;25.31;22.12
10464;BME280;5279;42.048;24.638;2023-02-19T09:47:22;97698.75;;;24.79;22.72
10464;BME280;5279;42.048;24.638;2023-02-19T09:49:52;97689.56;;;24.39;23.06
10464;BME280;5279;42.048;24.638;2023-02-19T09:52:26;97678.47;;;25.35;22.33
10464;BME280;5279;42.048;24.638;2023-02-19T09:54:58;97682.69;;;25.77;21.69
10464;BME280;5279;42.048;24.638;2023-02-19T09:57:29;97677.44;;;24.12;22.78
10464;BME280;5279;42.048;24.638;2023-02-19T10:00:03;97663.16;;;24.76;22.29
10464;BME280;5279;42.048;24.638;2023-02-19T10:02:30;97672.38;;;25.91;21.91
10464;BME280;5279;42.048;24.638;2023-02-19T10:04:58;97666.44;;;27.24;20.75
10464;BME280;5279;42.048;24.638;2023-02-19T10:07:32;97665.88;;;28.20;19.89
10464;BME280;5279;42.048;24.638;2023-02-19T10:10:19;97656.06;;;29.04;19.46
10464;BME280;5279;42.048;24.638;2023-02-19T10:12:51;97653.59;;;30.44;18.00
10464;BME280;5279;42.048;24.638;2023-02-19T10:15:24;97643.06;;;29.53;19.11
10464;BME280;5279;42.048;24.638;2023-02-19T10:17:53;97635.41;;;30.07;18.44
10464;BME280;5279;42.048;24.638;2023-02-19T10:20:21;97632.84;;;30.58;17.78
10464;BME280;5279;42.048;24.638;2023-02-19T10:22:57;97629.59;;;31.06;17.12
10464;BME280;5279;42.048;24.638;2023-02-19T10:25:26;97624.03;;;31.67;16.78
10464;BME280;5279;42.048;24.638;2023-02-19T10:27:53;97627.94;;;30.75;17.25
10464;BME280;5279;42.048;24.638;2023-02-19T10:30:22;97623.81;;;31.23;17.38
10464;BME280;5279;42.048;24.638;2023-02-19T10:33:02;97622.16;;;31.52;16.51
10464;BME280;5279;42.048;24.638;2023-02-19T10:35:33;97614.78;;;30.57;17.47
10464;BME280;5279;42.048;24.638;2023-02-19T10:38:01;97608.59;;;29.42;17.86
10464;BME280;5279;42.048;24.638;2023-02-19T10:40:32;97605.28;;;28.98;18.33
10464;BME280;5279;42.048;24.638;2023-02-19T10:43:01;97609.78;;;27.59;19.42
10464;BME280;5279;42.048;24.638;2023-02-19T10:45:32;97592.59;;;28.82;18.76
10464;BME280;5279;42.048;24.638;2023-02-19T10:48:00;97588.69;;;29.52;17.98
10464;BME280;5279;42.048;24.638;2023-02-19T10:50:30;97575.69;;;29.22;18.55
10464;BME280;5279;42.048;24.638;2023-02-19T10:52:59;97570.03;;;28.60;19.19
10464;BME280;5279;42.048;24.638;2023-02-19T10:55:33;97570.13;;;28.11;19.08
10464;BME280;5279;42.048;24.638;2023-02-19T10:58:22;97562.78;;;29.07;18.06
10464;BME280;5279;42.048;24.638;2023-02-19T11:01:16;97553.38;;;29.87;17.84
10464;BME280;5279;42.048;24.638;2023-02-19T11:03:45;97545.28;;;30.98;17.13
10464;BME280;5279;42.048;24.638;2023-02-19T11:06:13;97548.59;;;30.70;16.91
10464;BME280;5279;42.048;24.638;2023-02-19T11:08:50;97536.00;;;30.94;16.38
10464;BME280;5279;42.048;24.638;2023-02-19T11:11:27;97550.69;;;31.49;16.29
10464;BME280;5279;42.048;24.638;2023-02-19T11:13:58;97537.59;;;31.20;16.58
10464;BME280;5279;42.048;24.638;2023-02-19T11:16:41;97525.13;;;29.61;17.66
10464;BME280;5279;42.048;24.638;2023-02-19T11:19:22;97526.41;;;29.44;18.00
10464;BME280;5279;42.048;24.638;2023-02-19T11:21:49;97523.81;;;29.79;17.75
10464;BME280;5279;42.048;24.638;2023-02-19T11:24:27;97517.75;;;31.59;16.48
10464;BME280;5279;42.048;24.638;2023-02-19T11:26:57;97518.06;;;32.01;16.16
10464;BME280;5279;42.048;24.638;2023-02-19T11:29:24;97523.72;;;31.76;16.13
10464;BME280;5279;42.048;24.638;2023-02-19T11:31:53;97510.84;;;30.57;17.46
10464;BME280;5279;42.048;24.638;2023-02-19T11:34:28;97503.97;;;30.74;16.82
10464;BME280;5279;42.048;24.638;2023-02-19T11:37:10;97499.91;;;30.57;16.96
10464;BME280;5279;42.048;24.638;2023-02-19T11:39:39;97502.28;;;31.83;16.40
10464;BME280;5279;42.048;24.638;2023-02-19T11:42:40;97496.03;;;30.88;16.80
10464;BME280;5279;42.048;24.638;2023-02-19T11:45:19;97488.22;;;31.40;16.67
10464;BME280;5279;42.048;24.638;2023-02-19T11:48:11;97485.25;;;32.30;16.40
10464;BME280;5279;42.048;24.638;2023-02-19T11:51:04;97485.78;;;32.71;16.25
10464;BME280;5279;42.048;24.638;2023-02-19T11:53:43;97480.94;;;33.58;15.05
10464;BME280;5279;42.048;24.638;2023-02-19T11:56:14;97471.38;;;34.48;14.81
10464;BME280;5279;42.048;24.638;2023-02-19T11:58:54;97470.78;;;34.51;14.88
10464;BME280;5279;42.048;24.638;2023-02-19T12:01:29;97465.91;;;36.12;14.33
10464;BME280;5279;42.048;24.638;2023-02-19T12:07:13;97451.50;;;37.60;12.89
10464;BME280;5279;42.048;24.638;2023-02-19T12:09:54;97443.38;;;38.58;12.41
10464;BME280;5279;42.048;24.638;2023-02-19T12:12:33;97454.53;;;39.93;11.57
10464;BME280;5279;42.048;24.638;2023-02-19T12:15:19;97449.47;;;39.65;11.40
10464;BME280;5279;42.048;24.638;2023-02-19T12:18:21;97454.06;;;39.61;11.00
10464;BME280;5279;42.048;24.638;2023-02-19T12:20:57;97441.38;;;38.85;11.57
10464;BME280;5279;42.048;24.638;2023-02-19T12:26:22;97436.50;;;38.64;11.82
10464;BME280;5279;42.048;24.638;2023-02-19T12:29:04;97437.63;;;39.56;10.79
10464;BME280;5279;42.048;24.638;2023-02-19T12:32:12;97437.88;;;40.55;10.63
10464;BME280;5279;42.048;24.638;2023-02-19T12:34:59;97432.94;;;40.72;10.66
10464;BME280;5279;42.048;24.638;2023-02-19T12:37:40;97419.50;;;40.09;10.69
10464;BME280;5279;42.048;24.638;2023-02-19T12:40:19;97407.09;;;38.98;11.26
10464;BME280;5279;42.048;24.638;2023-02-19T12:43:00;97406.44;;;38.28;11.55
10464;BME280;5279;42.048;24.638;2023-02-19T12:45:31;97401.09;;;39.25;11.71
10464;BME280;5279;42.048;24.638;2023-02-19T12:48:05;97389.56;;;39.94;10.79
10464;BME280;5279;42.048;24.638;2023-02-19T12:50:38;97377.09;;;40.65;10.71
10464;BME280;5279;42.048;24.638;2023-02-19T12:55:52;97378.56;;;41.96;9.71
10464;BME280;5279;42.048;24.638;2023-02-19T12:58:25;97365.34;;;41.17;10.07
10464;BME280;5279;42.048;24.638;2023-02-19T13:00:55;97362.28;;;42.54;9.58
10464;BME280;5279;42.048;24.638;2023-02-19T13:03:29;97363.81;;;42.51;9.48
10464;BME280;5279;42.048;24.638;2023-02-19T13:06:03;97350.88;;;42.43;9.66
10464;BME280;5279;42.048;24.638;2023-02-19T13:08:36;97355.84;;;43.12;9.60
10464;BME280;5279;42.048;24.638;2023-02-19T13:11:08;97352.88;;;43.21;9.15
10464;BME280;5279;42.048;24.638;2023-02-19T13:13:39;97352.22;;;43.43;8.96
10464;BME280;5279;42.048;24.638;2023-02-19T13:16:12;97344.59;;;43.40;9.21
10464;BME280;5279;42.048;24.638;2023-02-19T13:18:45;97340.03;;;42.26;9.51
10464;BME280;5279;42.048;24.638;2023-02-19T13:21:13;97340.25;;;43.27;9.17
10464;BME280;5279;42.048;24.638;2023-02-19T13:24:04;97331.16;;;43.45;9.06
10464;BME280;5279;42.048;24.638;2023-02-19T13:26:50;97323.22;;;42.81;9.33
10464;BME280;5279;42.048;24.638;2023-02-19T13:29:39;97321.34;;;42.70;9.56